Wednesday, November 22, 2017, 4:12 AM EST
Back to Local

KMRB, Martinsburg Eastern Wv Reg

Location: Martinsburg, WV, United States Lat: 39.4
Local Time: 4:12 AM EST ( 9:12 GMT) Lon: -77.983
Time Zone: US/Eastern Elev: 557 ft

Show me the last for .
Show Decoded

2017-11-22 03:53 METAR KMRB 220853Z AUTO 00000KT 10SM BKN080 07/04 A2991 RMK AO2 SLP130 T00670044
                 55006 =
2017-11-22 02:53 METAR KMRB 220753Z AUTO 35004KT 10SM FEW060 BKN090 08/05 A2991 RMK AO2 SLP129
                 T00780050 =
2017-11-22 01:53 METAR KMRB 220653Z AUTO 19004KT 10SM BKN070 OVC090 10/05 A2991 RMK AO2 SLP128
                 T01000050 =
2017-11-22 00:53 METAR KMRB 220553Z AUTO 18004KT 10SM OVC080 07/04 A2993 RMK AO2 SLP136 T00670039
                 10094 20044 56016 =
2017-11-21 23:53 METAR KMRB 220453Z AUTO 23004KT 10SM SCT080 07/03 A2994 RMK AO2 SLP141 T00720033
                 401561006 =
2017-11-21 22:53 METAR KMRB 220353Z AUTO 21003KT 10SM CLR 05/02 A2996 RMK AO2 SLP146 T00500017 =
2017-11-21 21:53 METAR KMRB 220253Z 20003KT 10SM CLR 04/01 A2998 RMK AO2 SLP154 T00440006 58001 =
2017-11-21 20:53 METAR KMRB 220153Z 22003KT 10SM CLR 07/01 A2998 RMK AO2 SLP156 T00670006 =
2017-11-21 19:53 METAR KMRB 220053Z 21003KT 10SM CLR 08/01 A2998 RMK AO2 SLP155 T00830011 =
2017-11-21 18:53 METAR KMRB 212353Z 22003KT 10SM CLR 08/01 A2998 RMK AO2 SLP155 T00830006 10156
                 20083 53007 =
2017-11-21 17:53 METAR KMRB 212253Z 16006KT 10SM CLR 11/01 A2996 RMK AO2 SLP148 T01110006 =
2017-11-21 16:53 METAR KMRB 212153Z 15008KT 10SM CLR 13/M01 A2996 RMK AO2 SLP145 T01281011 =
2017-11-21 15:53 METAR KMRB 212053Z 16008KT 10SM CLR 14/M02 A2996 RMK AO2 SLP147 T01441022 56014
                 =
2017-11-21 14:53 METAR KMRB 211953Z 20008KT 10SM CLR 15/M02 A2996 RMK AO2 SLP148 T01501017 =
2017-11-21 13:53 METAR KMRB 211853Z 19006KT 10SM CLR 14/M02 A2998 RMK AO2 SLP154 T01441017 =
2017-11-21 12:53 METAR KMRB 211753Z 17005KT 10SM CLR 13/M03 A3000 RMK AO2 SLP161 T01281028 10128
                 21006 58027 =
2017-11-21 11:53 METAR KMRB 211653Z 19008KT 10SM CLR 12/M03 A3003 RMK AO2 SLP170 T01221033 =
2017-11-21 10:53 METAR KMRB 211553Z 21007KT 10SM CLR 12/M04 A3006 RMK AO2 SLP179 T01171039 =
2017-11-21 09:53 METAR KMRB 211453Z 19004KT 10SM CLR 10/M02 A3008 RMK AO2 SLP189 T01001022 53003
                 =
2017-11-21 08:53 METAR KMRB 211353Z 19005KT 10SM CLR 06/M04 A3008 RMK AO2 SLP188 T00611039 =
2017-11-21 07:53 METAR KMRB 211253Z 17006KT 10SM CLR 02/M05 A3007 RMK AO2 SLP187 T00221050 =
2017-11-21 06:53 METAR KMRB 211153Z 14004KT 10SM CLR 00/M06 A3007 RMK AO2 SLP187 T00001056 10028
                 20000 53002 $ =
2017-11-21 05:53 METAR KMRB 211053Z AUTO 16005KT 10SM CLR 01/M06 A3007 RMK AO2 SLP185 T00061056 $
                 =
2017-11-21 04:53 METAR KMRB 210953Z AUTO 17005KT 10SM CLR 02/M06 A3006 RMK AO2 SLP182 T00221056 $
                 =

Support USWX by starting your Amazon purchase here.